Time;durP1;ratioP1;P1;durP2;ratioP2;P2;SDS_P1;SDS_P2;PMS_P1;PMS_P2;Temp;Humidity;BMP_temperature;BMP_pressure;BME280_temperature;BME280_humidity;BME280_pressure;Samples;Min_cycle;Max_cycle;Signal;HPM_P1;HPM_P2
2022/07/16 00:03:32;;;;;;;6.45;2.05;;;;;;;16.36;73.52;101957.31;5178092;27;20050;-52
2022/07/16 00:06:02;;;;;;;2.67;1.65;;;;;;;16.35;74.25;101966.22;5177839;27;20492;-55
2022/07/16 00:08:30;;;;;;;4.50;1.50;;;;;;;16.33;74.45;101962.84;5177906;27;20039;-54
2022/07/16 00:10:58;;;;;;;4.65;1.70;;;;;;;16.28;75.01;101964.97;5177971;27;20062;-57
2022/07/16 00:13:26;;;;;;;3.50;1.60;;;;;;;16.31;75.41;101964.75;5178236;27;20392;-58
2022/07/16 00:15:55;;;;;;;3.40;1.55;;;;;;;16.28;75.26;101966.75;5178015;27;20046;-58
2022/07/16 00:21:06;;;;;;;3.50;1.65;;;;;;;16.29;75.26;101964.03;5132047;27;20062;-58
2022/07/16 00:23:34;;;;;;;4.40;1.52;;;;;;;16.26;75.59;101966.03;5176359;27;20042;-52
2022/07/16 00:26:03;;;;;;;4.50;1.77;;;;;;;16.25;76.08;101964.34;5177506;27;20129;-56
2022/07/16 00:28:31;;;;;;;3.75;1.70;;;;;;;16.25;76.05;101962.50;5177630;27;20078;-58
2022/07/16 00:30:59;;;;;;;3.58;1.70;;;;;;;16.22;76.40;101962.75;5177458;27;20094;-58
2022/07/16 00:33:27;;;;;;;3.70;1.75;;;;;;;16.26;76.92;101961.56;5178054;27;20034;-54
2022/07/16 00:35:55;;;;;;;4.10;1.70;;;;;;;16.28;76.58;101956.13;5177286;27;20042;-54
2022/07/16 00:38:25;;;;;;;5.35;1.95;;;;;;;16.25;76.70;101959.03;5177199;27;20054;-54
2022/07/16 00:40:53;;;;;;;7.10;2.13;;;;;;;16.28;77.68;101956.13;5177174;27;20089;-52
2022/07/16 00:43:21;;;;;;;3.20;1.80;;;;;;;16.29;77.04;101957.84;5177303;27;20441;-53
2022/07/16 00:45:50;;;;;;;6.65;1.80;;;;;;;16.35;77.30;101955.59;5177208;27;20130;-57
2022/07/16 00:48:19;;;;;;;6.05;2.08;;;;;;;16.40;76.62;101955.25;5177197;27;20065;-57
2022/07/16 00:50:47;;;;;;;5.60;1.85;;;;;;;16.44;76.96;101950.59;5177296;27;20042;-58
2022/07/16 00:53:16;;;;;;;4.72;2.50;;;;;;;16.45;76.47;101955.78;5177138;27;20117;-58
2022/07/16 00:55:45;;;;;;;4.85;2.25;;;;;;;16.45;76.90;101954.94;5177197;27;20049;-51
2022/07/16 00:58:13;;;;;;;6.47;2.40;;;;;;;16.47;76.89;101950.34;5177384;27;20050;-55
2022/07/16 01:00:41;;;;;;;4.50;2.42;;;;;;;16.45;77.41;101950.47;5176407;27;20103;-52
2022/07/16 01:03:10;;;;;;;5.00;2.65;;;;;;;16.48;77.53;101947.56;5176842;27;20049;-49
2022/07/16 01:05:38;;;;;;;6.22;2.55;;;;;;;16.53;77.17;101957.88;5177283;27;20496;-52
2022/07/16 01:08:07;;;;;;;6.47;2.55;;;;;;;16.55;77.31;101947.97;5176981;27;20049;-54
2022/07/16 01:10:36;;;;;;;7.07;2.70;;;;;;;16.58;77.23;101955.75;5176984;27;20508;-58
2022/07/16 01:13:08;;;;;;;4.68;2.35;;;;;;;16.60;77.23;101953.81;5176666;27;20044;-58
2022/07/16 01:15:36;;;;;;;5.38;2.40;;;;;;;16.62;77.29;101951.03;5176945;27;20106;-53
2022/07/16 01:18:04;;;;;;;6.97;2.70;;;;;;;16.62;77.29;101951.03;5176851;27;20038;-54
2022/07/16 01:20:33;;;;;;;4.57;2.70;;;;;;;16.60;77.17;101950.31;5177036;27;20054;-51
2022/07/16 01:23:01;;;;;;;7.80;3.00;;;;;;;16.53;77.14;101952.56;5176718;27;20038;-49
2022/07/16 01:25:31;;;;;;;5.63;2.67;;;;;;;16.50;77.62;101942.19;5176484;27;20034;-53
2022/07/16 01:27:59;;;;;;;5.95;2.72;;;;;;;16.48;77.52;101942.28;5157724;27;20069;-57
2022/07/16 01:30:27;;;;;;;4.50;2.38;;;;;;;16.48;78.07;101949.41;5176701;27;20071;-56
2022/07/16 01:32:55;;;;;;;7.22;2.60;;;;;;;16.44;78.59;101950.59;5176327;27;20053;-58
2022/07/16 01:35:24;;;;;;;5.22;2.40;;;;;;;16.44;79.09;101945.28;5176095;27;20106;-58
2022/07/16 01:37:52;;;;;;;5.30;2.58;;;;;;;16.49;79.22;101941.31;5175799;27;20057;-57
2022/07/16 01:40:20;;;;;;;7.10;2.92;;;;;;;16.46;79.92;101946.03;5175961;27;20046;-58
2022/07/16 01:42:50;;;;;;;6.53;2.88;;;;;;;16.48;80.39;101942.28;5175853;27;20095;-53
2022/07/16 01:45:18;;;;;;;5.45;2.63;;;;;;;16.47;80.54;101937.06;5175971;27;20034;-58
2022/07/16 01:47:46;;;;;;;6.65;3.15;;;;;;;16.45;81.45;101939.00;5175996;27;20047;-57
2022/07/16 01:50:14;;;;;;;8.77;3.40;;;;;;;16.46;80.75;101938.06;5176130;27;20114;-58
2022/07/16 01:52:42;;;;;;;6.55;2.92;;;;;;;16.48;80.71;101938.78;5175994;27;20095;-58
2022/07/16 01:55:10;;;;;;;8.48;3.28;;;;;;;16.49;81.38;101940.47;5175405;27;20094;-53
2022/07/16 01:57:39;;;;;;;6.25;2.92;;;;;;;16.52;81.48;101940.25;5175823;27;20038;-57
2022/07/16 02:00:10;;;;;;;7.47;2.85;;;;;;;16.54;81.82;101948.97;5175910;27;20042;-58
2022/07/16 02:02:38;;;;;;;6.03;2.83;;;;;;;16.54;81.43;101943.66;5175842;27;20053;-58
2022/07/16 02:05:07;;;;;;;8.80;3.35;;;;;;;16.50;81.87;101936.88;5175678;27;20107;-57
2022/07/16 02:07:35;;;;;;;7.85;3.00;;;;;;;16.54;81.67;101938.34;5175774;27;20065;-51
2022/07/16 02:10:03;;;;;;;7.00;3.28;;;;;;;16.53;81.92;101939.28;5175410;27;20098;-53
2022/07/16 02:12:31;;;;;;;7.38;3.13;;;;;;;16.55;82.08;101940.00;5156962;27;20106;-57
2022/07/16 02:14:59;;;;;;;7.30;2.78;;;;;;;16.56;82.31;101933.75;5175233;27;20038;-54
2022/07/16 02:17:29;;;;;;;8.07;3.10;;;;;;;16.59;82.17;101938.84;5175651;27;20431;-52
2022/07/16 02:19:57;;;;;;;4.90;2.70;;;;;;;16.60;81.97;101932.56;5175444;27;20073;-59
2022/07/16 02:22:25;;;;;;;7.20;3.20;;;;;;;16.61;81.81;101928.13;5175086;27;20053;-52
2022/07/16 02:24:53;;;;;;;6.60;2.75;;;;;;;16.63;82.16;101926.19;5175076;27;20125;-54
2022/07/16 02:27:22;;;;;;;6.18;3.20;;;;;;;16.66;81.82;101920.63;5175535;27;20396;-58
2022/07/16 02:29:50;;;;;;;5.57;2.70;;;;;;;16.64;82.26;101923.41;5175451;27;20065;-55
2022/07/16 02:32:18;;;;;;;6.28;2.83;;;;;;;16.68;82.05;101929.34;5175345;27;20518;-51
2022/07/16 02:34:49;;;;;;;8.43;2.95;;;;;;;16.69;82.64;101925.75;5173694;27;20086;-52
2022/07/16 02:37:17;;;;;;;5.90;3.10;;;;;;;16.66;82.46;101932.13;5156457;27;20526;-51
2022/07/16 02:39:45;;;;;;;6.88;2.80;;;;;;;16.66;82.53;101934.78;5175110;27;20065;-57
2022/07/16 02:42:13;;;;;;;5.82;2.75;;;;;;;16.70;82.29;101927.41;5175408;27;20519;-55
2022/07/16 02:44:41;;;;;;;6.40;2.70;;;;;;;16.75;81.76;101929.75;5175012;27;20040;-58
2022/07/16 02:47:09;;;;;;;6.57;2.88;;;;;;;16.75;82.30;101929.75;5174866;27;20035;-53
2022/07/16 02:49:37;;;;;;;5.13;2.50;;;;;;;16.71;82.77;101923.81;5156934;27;20427;-58
2022/07/16 02:52:07;;;;;;;5.57;2.42;;;;;;;16.71;82.50;101927.34;5174743;27;20125;-54
2022/07/16 02:54:36;;;;;;;5.53;2.53;;;;;;;16.71;82.06;101923.81;5175092;27;20042;-57
2022/07/16 02:57:04;;;;;;;6.68;2.80;;;;;;;16.72;82.04;101925.50;5175075;27;20557;-58
2022/07/16 02:59:33;;;;;;;5.30;2.50;;;;;;;16.72;82.12;101925.50;5175112;27;20054;-51
2022/07/16 03:02:01;;;;;;;7.68;2.85;;;;;;;16.72;82.50;101928.16;5175015;27;20057;-57
2022/07/16 03:04:29;;;;;;;5.63;2.60;;;;;;;16.73;82.78;101930.72;5174851;27;20038;-53
2022/07/16 03:06:57;;;;;;;5.70;2.53;;;;;;;16.71;83.52;101930.00;5174977;27;20037;-53
2022/07/16 03:09:27;;;;;;;8.40;2.90;;;;;;;16.69;83.57;101942.53;5175138;27;20392;-54
2022/07/16 03:11:55;;;;;;;8.27;3.05;;;;;;;16.64;83.79;101943.81;5174846;27;20396;-52
2022/07/16 03:14:23;;;;;;;7.30;2.85;;;;;;;16.64;83.87;101943.81;5174625;27;20038;-58
2022/07/16 03:16:51;;;;;;;9.55;2.63;;;;;;;16.61;83.76;101939.59;5174792;27;20069;-51
2022/07/16 03:19:19;;;;;;;8.43;2.67;;;;;;;16.59;84.60;101938.00;5174718;27;20512;-57
2022/07/16 03:21:49;;;;;;;8.68;3.40;;;;;;;16.53;84.39;101939.28;5174608;27;20048;-58
2022/07/16 03:24:17;;;;;;;6.93;2.60;;;;;;;16.48;85.46;101947.56;5174444;27;20045;-52
2022/07/16 03:26:46;;;;;;;7.13;3.13;;;;;;;16.48;85.90;101949.41;5174865;27;20050;-58
2022/07/16 03:29:15;;;;;;;7.03;3.35;;;;;;;16.46;86.16;101952.16;5174875;27;20042;-57
2022/07/16 03:31:43;;;;;;;5.85;3.20;;;;;;;16.48;86.21;101952.06;5175080;27;20038;-51
2022/07/16 03:34:12;;;;;;;8.65;3.67;;;;;;;16.48;86.88;101954.72;5175107;27;20046;-54
2022/07/16 03:36:40;;;;;;;8.73;3.38;;;;;;;16.49;87.29;101956.41;5174891;27;20101;-53
2022/07/16 03:39:08;;;;;;;8.15;3.58;;;;;;;16.50;86.77;101960.78;5174740;27;20106;-57
2022/07/16 03:41:37;;;;;;;7.40;3.33;;;;;;;16.49;87.78;101956.41;5174565;27;20066;-58
2022/07/16 03:44:11;;;;;;;7.57;2.83;;;;;;;16.50;88.22;101971.41;5174611;27;20106;-58
2022/07/16 03:46:39;;;;;;;10.00;3.60;;;;;;;16.43;89.12;101965.69;5155994;27;20049;-52
2022/07/16 03:49:08;;;;;;;8.40;3.33;;;;;;;16.45;88.89;101965.56;5174274;27;20077;-52
2022/07/16 03:51:37;;;;;;;8.90;3.90;;;;;;;16.44;90.02;101961.19;5174344;27;20042;-58
2022/07/16 03:54:05;;;;;;;7.68;3.85;;;;;;;16.44;89.94;101967.34;5174712;27;20062;-51
2022/07/16 03:56:34;;;;;;;7.47;3.72;;;;;;;16.41;90.68;101964.91;5156341;27;20044;-57
2022/07/16 03:59:02;;;;;;;7.07;3.53;;;;;;;16.41;91.43;101969.41;5178067;27;20050;-57
2022/07/16 04:01:32;;;;;;;7.97;3.58;;;;;;;16.45;91.52;101970.88;5177764;27;20034;-57
2022/07/16 04:04:00;;;;;;;7.50;3.80;;;;;;;16.45;91.71;101984.16;5178218;27;20053;-53
2022/07/16 04:06:28;;;;;;;8.70;3.63;;;;;;;16.44;92.16;101979.78;5178165;27;20038;-58
2022/07/16 04:08:56;;;;;;;9.85;4.30;;;;;;;16.42;92.71;101981.72;5159538;27;20057;-57
2022/07/16 04:11:24;;;;;;;8.60;4.00;;;;;;;16.41;92.54;101980.84;5178142;27;20062;-58
2022/07/16 04:13:53;;;;;;;7.22;3.92;;;;;;;16.44;93.53;101985.09;5178016;27;20057;-53
2022/07/16 04:16:21;;;;;;;8.13;4.20;;;;;;;16.38;94.14;101995.19;5177847;27;20533;-51
2022/07/16 04:18:52;;;;;;;6.90;3.72;;;;;;;16.42;94.31;101993.19;5177999;27;20038;-56
2022/07/16 04:21:20;;;;;;;11.20;4.45;;;;;;;16.44;94.37;101996.56;5159278;27;20153;-58
2022/07/16 04:23:49;;;;;;;8.05;3.70;;;;;;;16.48;94.06;102002.50;5177744;27;20421;-55
2022/07/16 04:26:17;;;;;;;9.70;3.90;;;;;;;16.47;94.69;102011.41;5177834;27;20042;-58
2022/07/16 04:28:46;;;;;;;8.18;3.97;;;;;;;16.45;95.10;102014.19;5177918;27;20038;-52
2022/07/16 04:31:15;;;;;;;11.48;3.95;;;;;;;16.45;96.47;102019.50;5177725;27;20046;-49
2022/07/16 04:33:44;;;;;;;8.05;3.85;;;;;;;16.46;100.00;102029.16;5177439;27;20042;-58
2022/07/16 04:36:13;;;;;;;7.68;3.83;;;;;;;16.46;100.00;102025.66;5177047;27;20117;-58
2022/07/16 04:38:42;;;;;;;11.00;3.92;;;;;;;16.36;100.00;102036.94;5176856;27;20543;-56
2022/07/16 04:41:10;;;;;;;8.55;3.58;;;;;;;16.35;100.00;102034.41;5176948;27;20556;-57
2022/07/16 04:43:39;;;;;;;9.13;3.90;;;;;;;16.35;100.00;102035.22;5177149;27;20041;-56
2022/07/16 04:46:07;;;;;;;6.90;3.50;;;;;;;16.35;100.00;102035.22;5177292;27;20056;-55
2022/07/16 04:48:35;;;;;;;6.70;3.42;;;;;;;16.33;100.00;102031.00;5177229;27;20054;-56
2022/07/16 04:51:04;;;;;;;7.07;3.65;;;;;;;16.42;100.00;102045.44;5176808;27;20054;-57
2022/07/16 04:53:36;;;;;;;9.10;4.10;;;;;;;16.37;100.00;102041.31;5177155;27;20106;-58
2022/07/16 04:56:05;;;;;;;7.07;3.43;;;;;;;16.31;100.00;102032.91;5177389;27;20056;-58
2022/07/16 04:58:34;;;;;;;7.65;3.85;;;;;;;16.38;100.00;102039.47;5177027;27;20053;-58
2022/07/16 05:01:02;;;;;;;7.07;3.70;;;;;;;16.28;100.00;102038.44;5177110;27;20050;-55
2022/07/16 05:03:30;;;;;;;8.52;4.30;;;;;;;16.31;100.00;102043.53;5177007;27;20121;-58
2022/07/16 05:05:59;;;;;;;7.45;4.05;;;;;;;16.36;100.00;102052.88;5177043;27;20042;-58
2022/07/16 05:08:27;;;;;;;9.25;4.10;;;;;;;16.42;100.00;102048.09;5176031;27;20042;-56
2022/07/16 05:10:57;;;;;;;9.05;4.80;;;;;;;16.34;100.00;102046.81;5177017;27;20556;-53
2022/07/16 05:13:25;;;;;;;10.60;4.82;;;;;;;16.25;100.00;102055.41;5176388;27;20050;-59
2022/07/16 05:15:53;;;;;;;8.23;4.53;;;;;;;16.31;100.00;102055.00;5176384;27;20057;-58
2022/07/16 05:18:21;;;;;;;8.98;4.38;;;;;;;16.29;100.00;102054.28;5176905;27;20049;-54
2022/07/16 05:20:49;;;;;;;8.88;4.40;;;;;;;16.35;100.00;102056.47;5176488;27;20133;-55
2022/07/16 05:23:17;;;;;;;8.73;4.85;;;;;;;16.35;100.00;102059.13;5157859;27;20496;-55
2022/07/16 05:25:46;;;;;;;7.43;4.60;;;;;;;16.42;100.00;102066.66;5176521;27;20042;-57
2022/07/16 05:28:15;;;;;;;9.40;4.82;;;;;;;16.50;100.00;102059.00;5176757;27;20445;-58
2022/07/16 05:30:43;;;;;;;10.73;4.70;;;;;;;16.62;100.00;102067.88;5176491;27;20512;-59
2022/07/16 05:33:11;;;;;;;9.50;5.20;;;;;;;16.71;100.00;102067.22;5176428;27;20057;-53
2022/07/16 05:35:40;;;;;;;8.32;4.72;;;;;;;16.77;100.00;102069.47;5176386;27;20034;-58
2022/07/16 05:38:08;;;;;;;8.07;4.68;;;;;;;16.82;100.00;102072.63;5176317;27;20050;-54
2022/07/16 05:40:36;;;;;;;9.65;4.93;;;;;;;16.86;100.00;102078.56;5176339;27;20110;-54
2022/07/16 05:43:05;;;;;;;7.43;4.25;;;;;;;16.90;100.00;102072.09;5176175;27;20095;-53
2022/07/16 05:45:35;;;;;;;8.23;4.13;;;;;;;16.93;100.00;102087.81;5157453;27;20038;-58
2022/07/16 05:48:05;;;;;;;9.85;4.57;;;;;;;17.00;100.00;102082.91;5175977;27;20075;-54
2022/07/16 05:50:33;;;;;;;8.02;3.95;;;;;;;17.12;100.00;102081.16;5176288;27;20057;-57
2022/07/16 05:53:01;;;;;;;8.13;4.05;;;;;;;17.11;100.00;102088.28;5157055;27;20069;-54
2022/07/16 05:55:29;;;;;;;9.25;4.40;;;;;;;17.20;100.00;102086.75;5175941;27;20054;-56
2022/07/16 05:57:57;;;;;;;6.60;4.10;;;;;;;17.25;100.00;102087.28;5176118;27;20042;-58
2022/07/16 06:00:26;;;;;;;7.75;3.95;;;;;;;17.37;100.00;102091.69;5175906;27;20087;-59
2022/07/16 06:02:55;;;;;;;7.30;4.05;;;;;;;17.49;100.00;102091.72;5175959;27;20397;-53
2022/07/16 06:05:24;;;;;;;7.78;3.55;;;;;;;17.63;100.00;102099.53;5175941;27;20049;-54
2022/07/16 06:07:52;;;;;;;7.80;3.47;;;;;;;17.69;100.00;102100.84;5176112;27;20125;-58
2022/07/16 06:10:21;;;;;;;7.20;3.28;;;;;;;17.69;100.00;102101.69;5175585;27;20038;-54
2022/07/16 06:12:49;;;;;;;8.02;2.90;;;;;;;17.74;100.00;102090.72;5175528;27;20038;-53
2022/07/16 06:15:17;;;;;;;7.15;3.10;;;;;;;17.85;100.00;102100.56;5175476;27;20046;-55
2022/07/16 06:17:45;;;;;;;7.25;2.53;;;;;;;17.99;100.00;102095.03;5175323;27;20084;-56
2022/07/16 06:20:15;;;;;;;7.38;2.58;;;;;;;18.06;100.00;102093.63;5156397;27;20070;-59
2022/07/16 06:22:43;;;;;;;6.97;2.42;;;;;;;18.22;100.00;102108.38;5175089;27;20060;-56
2022/07/16 06:25:13;;;;;;;6.45;2.35;;;;;;;18.21;100.00;102099.53;5174821;27;20130;-58
2022/07/16 06:27:43;;;;;;;5.78;2.20;;;;;;;18.30;100.00;102100.66;5174783;27;20038;-55
2022/07/16 06:30:13;;;;;;;5.78;2.58;;;;;;;18.23;100.00;102110.94;5174870;27;20057;-58
2022/07/16 06:32:41;;;;;;;5.50;1.90;;;;;;;18.29;98.87;102117.59;5174933;27;20042;-54
2022/07/16 06:35:11;;;;;;;8.32;2.47;;;;;;;18.31;99.25;102117.47;5175268;27;20145;-54
2022/07/16 06:37:40;;;;;;;5.95;1.90;;;;;;;18.37;96.20;102123.16;5175029;27;20046;-53
2022/07/16 06:40:09;;;;;;;4.95;2.10;;;;;;;18.57;95.33;102123.41;5133672;27;20051;-58
2022/07/16 06:42:38;;;;;;;4.60;1.63;;;;;;;18.65;92.51;102129.00;5133565;27;20051;-58
2022/07/16 06:45:07;;;;;;;5.32;1.45;;;;;;;18.70;89.00;102128.59;5133399;27;20046;-58
2022/07/16 06:47:36;;;;;;;5.53;1.40;;;;;;;18.70;86.59;102141.94;5133430;27;20051;-51
2022/07/16 06:50:05;;;;;;;3.88;1.40;;;;;;;18.79;85.89;102148.34;5133423;27;20126;-58
2022/07/16 06:52:33;;;;;;;5.78;1.30;;;;;;;18.94;82.45;102151.63;5133361;27;20039;-53
2022/07/16 06:55:02;;;;;;;3.63;1.40;;;;;;;19.05;81.90;102149.78;5133375;27;20066;-52
2022/07/16 06:57:30;;;;;;;4.45;1.52;;;;;;;19.15;82.30;102155.22;5132160;27;20039;-53
2022/07/16 06:59:58;;;;;;;3.75;1.20;;;;;;;19.25;79.58;102147.31;5133744;27;20039;-58
2022/07/16 07:02:27;;;;;;;5.18;1.38;;;;;;;19.34;78.20;102157.25;5132187;27;20096;-56
2022/07/16 07:04:55;;;;;;;9.20;1.67;;;;;;;19.45;79.00;102160.84;5133361;28;20401;-57
2022/07/16 07:07:23;;;;;;;3.72;0.90;;;;;;;19.49;76.53;102165.81;5133600;27;20066;-56
2022/07/16 07:09:51;;;;;;;2.90;1.10;;;;;;;19.53;76.24;102163.72;5133120;28;20107;-56
2022/07/16 07:12:21;;;;;;;5.65;1.33;;;;;;;19.59;73.61;102168.56;5133172;27;20046;-51
2022/07/16 07:14:49;;;;;;;4.43;1.00;;;;;;;19.56;69.05;102174.16;5133467;28;20386;-53
2022/07/16 07:17:17;;;;;;;3.90;0.77;;;;;;;19.66;66.51;102167.09;5133069;28;20541;-53
2022/07/16 07:19:45;;;;;;;3.13;1.00;;;;;;;19.70;64.90;102170.31;5133403;28;20553;-53
2022/07/16 07:22:13;;;;;;;5.70;1.15;;;;;;;19.66;64.33;102171.56;5131858;28;20044;-56
2022/07/16 07:24:41;;;;;;;5.22;1.13;;;;;;;19.81;63.92;102182.81;5132828;28;20051;-49
2022/07/16 07:27:15;;;;;;;3.50;1.02;;;;;;;19.92;64.50;102178.28;5132916;27;20035;-56
2022/07/16 07:29:44;;;;;;;5.38;1.13;;;;;;;20.01;64.09;102183.81;5133030;28;20134;-57
2022/07/16 07:32:13;;;;;;;3.33;0.93;;;;;;;20.19;64.40;102192.06;5134617;27;20047;-54
2022/07/16 07:34:41;;;;;;;5.65;1.00;;;;;;;20.42;65.40;102180.28;5136847;27;20043;-54
2022/07/16 07:37:10;;;;;;;6.10;1.25;;;;;;;20.60;63.64;102190.34;5136600;27;20038;-56
2022/07/16 07:39:39;;;;;;;3.53;1.08;;;;;;;20.68;62.02;102197.69;5170079;27;20051;-53
2022/07/16 07:42:07;;;;;;;4.55;1.02;;;;;;;20.82;60.85;102197.38;5159752;27;20442;-49
2022/07/16 07:44:35;;;;;;;5.30;1.20;;;;;;;20.88;59.31;102193.31;5178443;27;20050;-52
2022/07/16 07:47:05;;;;;;;5.07;1.10;;;;;;;21.13;60.88;102193.81;5178364;27;20500;-51
2022/07/16 07:49:33;;;;;;;5.78;1.10;;;;;;;21.09;57.70;102191.41;5178552;27;20046;-53
2022/07/16 07:52:06;;;;;;;6.03;1.30;;;;;;;21.06;57.11;102193.50;5178293;27;20039;-57
2022/07/16 07:54:35;;;;;;;2.83;1.00;;;;;;;20.89;54.61;102195.84;5178533;27;20485;-53
2022/07/16 07:57:03;;;;;;;4.47;0.90;;;;;;;20.92;54.93;102194.72;5178279;27;20044;-51
2022/07/16 07:59:31;;;;;;;4.88;1.10;;;;;;;21.11;54.50;102199.28;5178192;27;20038;-57
2022/07/16 08:01:59;;;;;;;5.90;1.08;;;;;;;21.10;54.03;102203.81;5159541;27;20049;-57
2022/07/16 08:04:30;;;;;;;4.03;1.05;;;;;;;21.28;53.15;102206.66;5159491;27;20049;-56
2022/07/16 08:06:58;;;;;;;3.45;1.00;;;;;;;21.33;53.16;102210.75;5178131;27;20050;-57
2022/07/16 08:09:26;;;;;;;5.05;1.20;;;;;;;21.59;53.37;102201.22;5178141;27;20125;-57
2022/07/16 08:11:55;;;;;;;5.22;1.00;;;;;;;21.52;52.75;102208.09;5178022;27;20378;-57
2022/07/16 08:14:23;;;;;;;3.42;1.00;;;;;;;21.51;52.25;102205.56;5178111;27;20466;-55
2022/07/16 08:16:55;;;;;;;5.17;1.20;;;;;;;21.63;52.46;102199.13;5177795;27;20049;-51
2022/07/16 08:19:23;;;;;;;4.30;0.95;;;;;;;21.97;52.42;102201.38;5177883;27;20090;-52
2022/07/16 08:21:53;;;;;;;2.75;1.02;;;;;;;22.19;50.18;102202.88;5177764;27;20107;-58
2022/07/16 08:27:06;;;;;;;4.13;1.00;;;;;;;22.48;49.23;102209.22;5177578;27;20071;-57
2022/07/16 08:29:34;;;;;;;4.20;0.95;;;;;;;22.55;49.19;102211.16;5177543;27;20046;-58
2022/07/16 08:32:03;;;;;;;4.30;1.05;;;;;;;22.69;50.31;102217.06;5177425;27;20137;-57
2022/07/16 08:34:31;;;;;;;4.80;1.00;;;;;;;22.68;48.54;102218.88;5177666;27;20042;-57
2022/07/16 08:37:00;;;;;;;6.65;1.17;;;;;;;22.90;49.63;102208.75;5177256;27;20133;-57
2022/07/16 08:39:29;;;;;;;6.20;1.00;;;;;;;22.92;50.06;102218.34;5177437;27;20061;-56
2022/07/16 08:41:57;;;;;;;6.88;1.35;;;;;;;23.12;49.54;102218.25;5177388;27;20405;-57
2022/07/16 08:44:25;;;;;;;6.40;1.35;;;;;;;22.96;49.86;102226.97;5176276;27;20042;-57
2022/07/16 08:46:54;;;;;;;4.57;1.30;;;;;;;22.53;49.92;102225.72;5177419;27;20046;-56
2022/07/16 08:49:23;;;;;;;4.35;1.25;;;;;;;22.48;50.67;102233.34;5176935;27;20050;-53
2022/07/16 08:51:59;;;;;;;6.72;1.10;;;;;;;22.54;50.11;102230.09;5158325;27;20042;-49
2022/07/16 08:54:30;;;;;;;6.75;1.10;;;;;;;22.07;50.04;102246.91;5176972;27;20594;-56
2022/07/16 08:57:00;;;;;;;3.22;0.80;;;;;;;21.65;49.71;102239.13;5158442;27;20066;-57
2022/07/16 08:59:28;;;;;;;6.05;1.10;;;;;;;21.36;49.83;102245.25;5176854;27;20046;-56
2022/07/16 09:01:57;;;;;;;4.40;0.93;;;;;;;21.45;50.04;102245.28;5177233;27;20403;-57
2022/07/16 09:04:26;;;;;;;5.28;0.80;;;;;;;21.73;49.29;102241.97;5176944;27;20053;-56
2022/07/16 09:06:54;;;;;;;3.78;1.13;;;;;;;21.82;48.12;102256.34;5176915;27;20049;-57
2022/07/16 09:09:22;;;;;;;4.03;0.88;;;;;;;22.20;49.34;102254.66;5176674;27;20073;-56
2022/07/16 09:11:51;;;;;;;4.78;1.08;;;;;;;22.36;46.93;102254.94;5176654;27;20095;-57
2022/07/16 09:14:20;;;;;;;3.33;0.82;;;;;;;22.06;46.54;102267.50;5176616;27;20503;-55
2022/07/16 09:16:50;;;;;;;3.70;0.93;;;;;;;22.30;46.33;102271.56;5176580;27;20166;-57
2022/07/16 09:19:20;;;;;;;4.00;1.17;;;;;;;22.23;46.89;102278.47;5176434;27;20429;-57
2022/07/16 09:22:03;;;;;;;3.65;0.90;;;;;;;22.61;46.70;102279.44;5176262;27;20050;-53
2022/07/16 09:24:33;;;;;;;2.15;0.82;;;;;;;22.72;46.42;102275.75;5176026;27;20093;-57
2022/07/16 09:27:05;;;;;;;4.15;1.00;;;;;;;23.03;45.43;102276.34;5175922;27;20046;-56
2022/07/16 09:29:35;;;;;;;4.20;1.00;;;;;;;23.19;43.85;102277.56;5176316;27;20038;-58
2022/07/16 09:32:04;;;;;;;3.15;0.90;;;;;;;23.06;42.41;102281.41;5175807;27;20046;-56
2022/07/16 09:34:32;;;;;;;4.18;0.95;;;;;;;23.10;41.50;102288.16;5157428;27;20549;-51
2022/07/16 09:37:03;;;;;;;3.17;1.00;;;;;;;23.27;42.09;102286.56;5175888;27;20531;-58
2022/07/16 09:39:33;;;;;;;3.15;0.80;;;;;;;23.55;40.79;102283.03;5175059;27;20396;-54
2022/07/16 09:42:02;;;;;;;2.90;0.77;;;;;;;23.67;40.38;102286.31;5175727;27;20077;-52
2022/07/16 09:44:34;;;;;;;2.00;0.60;;;;;;;23.90;39.64;102287.59;5175770;27;20052;-58
2022/07/16 09:47:05;;;;;;;3.88;0.80;;;;;;;24.28;39.89;102295.47;5175869;27;20049;-58
2022/07/16 09:49:36;;;;;;;2.90;0.70;;;;;;;24.59;38.27;102284.28;5175782;27;20519;-57
2022/07/16 09:52:05;;;;;;;5.00;0.98;;;;;;;24.70;38.84;102291.28;5157032;27;20058;-57
2022/07/16 09:54:35;;;;;;;4.88;0.90;;;;;;;24.74;38.34;102296.16;5175389;27;20042;-57
2022/07/16 09:57:08;;;;;;;4.38;1.35;;;;;;;24.46;37.50;102299.00;5156941;27;20050;-57
2022/07/16 09:59:38;;;;;;;3.40;0.80;;;;;;;24.23;37.31;102289.75;5175343;27;20042;-54
2022/07/16 10:02:27;;;;;;;2.78;0.80;;;;;;;24.57;37.75;102294.34;5157210;27;20054;-53
2022/07/16 10:04:56;;;;;;;3.72;0.85;;;;;;;24.98;36.74;102302.72;5175723;27;20043;-58
2022/07/16 10:07:31;;;;;;;3.75;0.90;;;;;;;25.27;35.81;102301.47;5175651;27;20042;-56
2022/07/16 10:10:00;;;;;;;3.17;0.75;;;;;;;25.17;35.79;102298.06;5175835;27;20037;-51
2022/07/16 10:12:30;;;;;;;4.55;1.02;;;;;;;25.57;37.61;102296.56;5175797;27;20401;-54
2022/07/16 10:15:03;;;;;;;5.15;0.98;;;;;;;25.34;35.20;102307.09;5175506;27;20042;-53
2022/07/16 10:17:34;;;;;;;4.50;1.08;;;;;;;24.90;35.81;102318.81;5175354;27;20053;-53
2022/07/16 10:20:08;;;;;;;2.58;0.75;;;;;;;25.07;35.80;102312.50;5175256;27;20057;-51
2022/07/16 10:22:38;;;;;;;2.65;1.08;;;;;;;25.12;36.29;102317.41;5175514;27;20078;-51
2022/07/16 10:25:12;;;;;;;4.75;0.98;;;;;;;25.64;35.19;102319.13;5175418;27;20489;-52
2022/07/16 10:27:42;;;;;;;3.25;0.82;;;;;;;25.65;35.10;102313.56;5175619;27;20562;-52
2022/07/16 10:30:18;;;;;;;3.53;0.70;;;;;;;25.80;35.85;102321.84;5175261;27;20129;-56
2022/07/16 10:33:10;;;;;;;4.50;0.90;;;;;;;25.48;36.12;102322.63;5175296;27;20050;-57
2022/07/16 10:35:40;;;;;;;4.72;0.90;;;;;;;25.48;35.74;102318.09;5175091;27;20458;-57
2022/07/16 10:38:10;;;;;;;3.92;0.95;;;;;;;25.47;35.78;102319.09;5174592;27;20038;-57
2022/07/16 10:41:08;;;;;;;4.57;0.90;;;;;;;25.89;34.17;102316.47;5175031;27;20052;-53
2022/07/16 10:43:37;;;;;;;;;;;;;;;26.14;34.68;102320.09;5175477;27;20050;-49
2022/07/16 10:46:07;;;;;;;4.85;1.10;;;;;;;26.29;32.89;102322.97;5175008;27;20003;-52
2022/07/16 10:49:20;;;;;;;3.78;0.80;;;;;;;26.63;31.58;102327.31;5175245;27;20070;-53
2022/07/16 10:51:58;;;;;;;3.33;0.70;;;;;;;26.82;32.17;102328.84;5128289;27;20077;-57
2022/07/16 10:54:29;;;;;;;4.20;0.90;;;;;;;27.15;33.20;102328.72;5174790;27;20046;-53
2022/07/16 10:57:02;;;;;;;3.50;0.80;;;;;;;27.14;32.66;102332.44;5174644;27;20073;-57
2022/07/16 10:59:33;;;;;;;5.75;0.98;;;;;;;27.18;31.75;102341.03;5174668;27;20418;-56
2022/07/16 11:02:04;;;;;;;4.43;0.90;;;;;;;27.35;31.56;102341.78;5174780;27;20062;-57
2022/07/16 11:04:37;;;;;;;5.07;0.83;;;;;;;27.49;30.96;102341.94;5174709;27;20048;-56
2022/07/16 11:07:08;;;;;;;3.67;0.77;;;;;;;27.31;30.66;102349.44;5174124;27;20094;-56
2022/07/16 11:09:39;;;;;;;4.25;1.02;;;;;;;27.57;30.57;102341.06;5174979;27;20530;-55
2022/07/16 11:12:12;;;;;;;5.82;1.23;;;;;;;27.46;31.86;102347.69;5174355;27;20408;-57
2022/07/16 11:14:42;;;;;;;3.47;1.38;;;;;;;27.70;30.51;102345.03;5174477;27;20442;-57
2022/07/16 11:17:11;;;;;;;5.07;1.02;;;;;;;27.71;28.88;102344.84;5174073;27;20054;-56
2022/07/16 11:19:41;;;;;;;3.30;0.95;;;;;;;27.61;30.18;102342.38;5174179;27;20054;-56
2022/07/16 11:22:12;;;;;;;5.97;0.80;;;;;;;27.81;29.52;102340.09;5174549;27;20511;-57
2022/07/16 11:24:45;;;;;;;3.72;0.70;;;;;;;27.96;29.98;102342.84;5174910;27;20094;-57
2022/07/16 11:27:14;;;;;;;4.55;0.80;;;;;;;27.27;31.33;102353.50;5174478;27;20050;-56
2022/07/16 11:29:42;;;;;;;4.53;1.63;;;;;;;27.08;32.07;102358.28;5174608;27;20048;-55
2022/07/16 11:32:15;;;;;;;6.05;0.98;;;;;;;26.73;32.62;102356.84;5174437;27;20046;-57
2022/07/16 11:34:44;;;;;;;6.05;1.08;;;;;;;27.31;32.37;102349.44;5174556;27;20480;-56
2022/07/16 11:37:12;;;;;;;5.28;0.90;;;;;;;27.90;31.71;102348.97;5174549;27;20042;-58
2022/07/16 11:39:40;;;;;;;4.05;0.77;;;;;;;27.94;29.17;102355.69;5174590;27;20070;-57
2022/07/16 11:42:09;;;;;;;5.40;0.80;;;;;;;28.19;29.95;102346.59;5174473;27;20038;-57